createdAt,value
2017-11-12T00:00:35.304Z,94.10
2017-11-12T00:01:41.296Z,93.94
2017-11-12T00:02:47.417Z,93.65
2017-11-12T00:03:53.536Z,93.82
2017-11-12T00:04:59.373Z,94.16
2017-11-12T00:06:05.456Z,93.89
2017-11-12T00:07:20.613Z,93.80
2017-11-12T00:08:26.663Z,93.68
2017-11-12T00:09:32.716Z,93.50
2017-11-12T00:10:38.802Z,93.83
2017-11-12T00:11:44.934Z,94.06
2017-11-12T00:12:51.035Z,94.10
2017-11-12T00:13:57.145Z,93.74
2017-11-12T00:15:03.192Z,93.55
2017-11-12T00:16:09.288Z,93.71
2017-11-12T00:17:15.444Z,93.80
2017-11-12T00:18:21.574Z,93.99
2017-11-12T00:19:27.610Z,94.27
2017-11-12T00:20:33.705Z,94.36
2017-11-12T00:21:39.805Z,94.06
2017-11-12T00:22:47.156Z,93.97
2017-11-12T00:23:53.263Z,94.18
2017-11-12T00:25:03.973Z,94.23
2017-11-12T00:26:13.070Z,94.52
2017-11-12T00:27:19.147Z,94.58
2017-11-12T00:28:25.233Z,94.27
2017-11-12T00:29:30.927Z,94.43
2017-11-12T00:30:37.085Z,94.66
2017-11-12T00:31:50.799Z,94.57
2017-11-12T00:32:56.863Z,94.02
2017-11-12T00:34:08.690Z,93.81
2017-11-12T00:35:14.762Z,94.06
2017-11-12T00:36:20.729Z,94.06
2017-11-12T00:37:26.698Z,94.09
2017-11-12T00:38:32.760Z,94.11
2017-11-12T00:39:41.009Z,93.92
2017-11-12T00:40:47.096Z,94.15
2017-11-12T00:41:53.009Z,94.08
2017-11-12T00:42:59.060Z,93.88
2017-11-12T00:44:05.130Z,94.00
2017-11-12T00:45:11.223Z,93.85
2017-11-12T00:46:17.301Z,94.03
2017-11-12T00:47:24.245Z,94.36
2017-11-12T00:48:30.296Z,94.85
2017-11-12T00:49:36.383Z,94.95
2017-11-12T00:50:42.469Z,95.13
2017-11-12T00:51:48.584Z,94.99
2017-11-12T00:52:54.653Z,94.84
2017-11-12T00:54:01.639Z,94.47
2017-11-12T00:55:07.719Z,94.50
2017-11-12T00:56:13.802Z,94.10
2017-11-12T00:57:19.939Z,94.05
2017-11-12T00:58:26.094Z,93.89
2017-11-12T00:59:32.165Z,93.55
2017-11-12T01:00:38.259Z,93.83
2017-11-12T01:01:44.367Z,93.85
2017-11-12T01:02:50.457Z,93.79
2017-11-12T01:03:57.470Z,93.63
2017-11-12T01:05:03.553Z,93.57
2017-11-12T01:06:09.663Z,93.93
2017-11-12T01:07:15.785Z,94.08
2017-11-12T01:08:21.827Z,94.27
2017-11-12T01:09:27.933Z,93.90
2017-11-12T01:10:33.996Z,93.64
2017-11-12T01:11:40.116Z,93.81
2017-11-12T01:12:45.908Z,93.96
2017-11-12T01:13:52.047Z,94.04
2017-11-12T01:14:58.160Z,94.34
2017-11-12T01:16:05.108Z,94.70
2017-11-12T01:17:11.223Z,95.00
2017-11-12T01:18:17.328Z,94.93
2017-11-12T01:19:23.426Z,94.86
2017-11-12T01:20:29.537Z,94.69
2017-11-12T01:21:35.651Z,94.85
2017-11-12T01:22:41.561Z,94.80
2017-11-12T01:23:47.631Z,94.96
2017-11-12T01:24:53.712Z,94.77
2017-11-12T01:25:59.788Z,94.59
2017-11-12T01:27:05.904Z,94.25
2017-11-12T01:28:11.996Z,94.45
2017-11-12T01:29:18.092Z,93.85
2017-11-12T01:30:24.191Z,94.15
2017-11-12T01:31:30.307Z,94.33
2017-11-12T01:32:36.406Z,94.60
2017-11-12T01:33:42.538Z,94.58
2017-11-12T01:34:48.651Z,94.50
2017-11-12T01:35:54.749Z,94.14
2017-11-12T01:37:00.449Z,93.92
2017-11-12T01:38:07.360Z,93.99
2017-11-12T01:39:13.433Z,94.12
2017-11-12T01:40:19.519Z,94.36
2017-11-12T01:41:25.615Z,94.37
2017-11-12T01:42:31.729Z,94.32
2017-11-12T01:43:38.731Z,94.24
2017-11-12T01:44:45.740Z,94.07
2017-11-12T01:45:51.615Z,93.97
2017-11-12T01:46:57.683Z,93.99
2017-11-12T01:48:03.774Z,93.56
2017-11-12T01:49:09.944Z,93.58
2017-11-12T01:50:16.014Z,93.15
2017-11-12T01:51:22.070Z,93.07
2017-11-12T01:52:28.158Z,92.90
2017-11-12T01:53:34.256Z,92.97
2017-11-12T01:54:40.403Z,93.58
2017-11-12T01:55:46.487Z,93.58
2017-11-12T01:56:52.567Z,93.50
2017-11-12T01:57:59.567Z,93.52
2017-11-12T01:59:05.303Z,93.61
2017-11-12T02:00:10.482Z,93.63
2017-11-12T02:01:16.359Z,93.79
2017-11-12T02:02:21.549Z,93.71
2017-11-12T02:03:27.087Z,93.55
2017-11-12T02:04:33.145Z,93.54
2017-11-12T02:05:38.752Z,93.33
2017-11-12T02:06:44.842Z,93.47
2017-11-12T02:09:02.975Z,93.50
2017-11-12T02:10:09.127Z,93.71
2017-11-12T02:11:15.193Z,93.61
2017-11-12T02:12:21.290Z,93.86
2017-11-12T02:13:27.014Z,93.92
2017-11-12T02:14:33.116Z,93.96
2017-11-12T02:15:39.209Z,93.79
2017-11-12T02:16:45.285Z,93.62
2017-11-12T02:17:51.191Z,93.40
2017-11-12T02:18:57.051Z,92.97
2017-11-12T02:20:02.461Z,92.70
2017-11-12T02:21:07.978Z,92.66
2017-11-12T02:22:13.437Z,92.77
2017-11-12T02:23:18.847Z,93.10
2017-11-12T02:24:24.724Z,93.24
2017-11-12T02:25:31.920Z,93.24
2017-11-12T02:26:37.281Z,93.43
2017-11-12T02:27:43.056Z,94.06
2017-11-12T02:28:48.502Z,94.36
2017-11-12T02:29:53.687Z,94.30
2017-11-12T02:30:59.032Z,94.16
2017-11-12T02:32:04.551Z,94.07
2017-11-12T02:33:09.916Z,94.15
2017-11-12T02:34:15.092Z,94.43
2017-11-12T02:35:20.836Z,94.48
2017-11-12T02:36:26.565Z,94.35
2017-11-12T02:37:31.992Z,93.98
2017-11-12T02:38:37.591Z,93.79
2017-11-12T02:39:43.300Z,93.42
2017-11-12T02:40:48.996Z,93.35
2017-11-12T02:41:54.741Z,93.50
2017-11-12T02:43:00.266Z,93.52
2017-11-12T02:44:06.000Z,93.54
2017-11-12T02:45:11.357Z,93.50
2017-11-12T02:46:17.102Z,93.42
2017-11-12T02:47:22.487Z,93.14
2017-11-12T02:48:27.884Z,92.90
2017-11-12T02:49:37.705Z,93.21
2017-11-12T02:50:43.424Z,93.15
2017-11-12T02:51:48.759Z,92.59
2017-11-12T02:52:54.166Z,92.24
2017-11-12T02:53:59.567Z,92.30
2017-11-12T02:55:15.084Z,92.42
2017-11-12T02:56:21.276Z,92.40
2017-11-12T02:57:27.389Z,92.57
2017-11-12T02:58:32.945Z,92.20
2017-11-12T02:59:41.099Z,92.26
2017-11-12T03:00:47.194Z,91.96
2017-11-12T03:01:52.934Z,92.47
2017-11-12T03:02:58.866Z,92.41
2017-11-12T03:04:04.971Z,92.09
2017-11-12T03:05:11.944Z,91.90
2017-11-12T03:06:18.756Z,91.92
2017-11-12T03:07:24.623Z,92.14
2017-11-12T03:08:30.647Z,92.32
2017-11-12T03:09:37.718Z,92.23
2017-11-12T03:10:43.799Z,92.58
2017-11-12T03:11:49.865Z,92.90
2017-11-12T03:12:56.449Z,92.31
2017-11-12T03:14:02.546Z,92.14
2017-11-12T03:15:08.201Z,92.06
2017-11-12T03:16:14.278Z,91.94
2017-11-12T03:17:19.997Z,92.38
2017-11-12T03:18:26.100Z,92.12
2017-11-12T03:19:32.180Z,92.16
2017-11-12T03:20:37.901Z,92.31
2017-11-12T03:21:43.990Z,92.01
2017-11-12T03:22:50.060Z,92.24
2017-11-12T03:23:55.803Z,92.59
2017-11-12T03:25:01.545Z,92.63
2017-11-12T03:26:06.892Z,92.62
2017-11-12T03:27:12.280Z,92.57
2017-11-12T03:28:17.445Z,92.28
2017-11-12T03:29:23.652Z,92.24
2017-11-12T03:30:29.357Z,92.04
2017-11-12T03:31:35.433Z,92.07
2017-11-12T03:32:41.532Z,91.98
2017-11-12T03:33:47.398Z,91.59
2017-11-12T03:34:53.492Z,91.87
2017-11-12T03:35:59.583Z,91.50
2017-11-12T03:37:05.654Z,91.46
2017-11-12T03:38:12.014Z,91.64
2017-11-12T03:39:18.108Z,91.62
2017-11-12T03:40:24.215Z,92.01
2017-11-12T03:41:30.296Z,92.12
2017-11-12T03:42:36.387Z,92.26
2017-11-12T03:43:42.459Z,92.12
2017-11-12T03:44:48.200Z,92.26
2017-11-12T03:45:54.329Z,92.53
2017-11-12T03:47:00.078Z,92.85
2017-11-12T03:48:06.168Z,92.70
2017-11-12T03:49:11.893Z,92.60
2017-11-12T03:50:17.299Z,92.29
2017-11-12T03:51:22.737Z,92.56
2017-11-12T03:52:28.575Z,92.73
2017-11-12T03:53:34.634Z,92.78
2017-11-12T03:54:40.334Z,92.74
2017-11-12T03:55:45.832Z,92.82
2017-11-12T03:56:51.550Z,93.02
2017-11-12T03:57:57.644Z,93.12
2017-11-12T03:59:03.761Z,93.39
2017-11-12T04:00:08.945Z,93.55
2017-11-12T04:01:14.794Z,93.65
2017-11-12T04:02:20.871Z,93.94
2017-11-12T04:03:26.575Z,94.25
2017-11-12T04:04:32.678Z,94.21
2017-11-12T04:05:38.870Z,93.94
2017-11-12T04:06:44.378Z,93.94
2017-11-12T04:07:50.137Z,94.17
2017-11-12T04:08:56.220Z,94.16
2017-11-12T04:10:02.350Z,94.16
2017-11-12T04:11:08.454Z,94.24
2017-11-12T04:12:14.482Z,94.20
2017-11-12T04:13:20.525Z,94.28
2017-11-12T04:14:26.591Z,94.21
2017-11-12T04:15:32.681Z,94.47
2017-11-12T04:16:38.765Z,94.58
2017-11-12T04:17:44.816Z,94.87
2017-11-12T04:18:50.540Z,94.94
2017-11-12T04:19:56.455Z,94.77
2017-11-12T04:21:02.523Z,94.66
2017-11-12T04:22:08.048Z,94.78
2017-11-12T04:23:15.011Z,94.69
2017-11-12T04:24:21.047Z,94.83
2017-11-12T04:25:27.138Z,94.92
2017-11-12T04:26:37.618Z,95.03
2017-11-12T04:27:43.496Z,95.08
2017-11-12T04:28:49.572Z,95.09
2017-11-12T04:29:55.674Z,95.07
2017-11-12T04:31:01.749Z,95.38
2017-11-12T04:32:07.809Z,95.36
2017-11-12T04:33:13.873Z,95.45
2017-11-12T04:34:19.919Z,95.71
2017-11-12T04:35:26.094Z,95.79
2017-11-12T04:36:33.053Z,95.84
2017-11-12T04:37:40.021Z,95.76
2017-11-12T04:38:46.093Z,95.66
2017-11-12T04:39:52.202Z,95.23
2017-11-12T04:40:58.326Z,95.11
2017-11-12T04:42:04.396Z,95.05
2017-11-12T04:43:10.489Z,94.55
2017-11-12T04:44:16.529Z,95.05
2017-11-12T04:45:22.652Z,95.37
2017-11-12T04:46:28.738Z,95.05
2017-11-12T04:47:37.170Z,94.79
2017-11-12T04:48:43.260Z,94.36
2017-11-12T04:49:49.381Z,94.03
2017-11-12T04:50:55.452Z,93.38
2017-11-12T04:52:03.466Z,92.69
2017-11-12T04:53:10.424Z,92.41
2017-11-12T04:54:16.500Z,91.98
2017-11-12T04:55:22.649Z,91.86
2017-11-12T04:56:28.845Z,91.62
2017-11-12T04:57:34.625Z,91.84
2017-11-12T04:58:40.671Z,92.08
2017-11-12T04:59:46.761Z,92.08
2017-11-12T05:00:57.649Z,92.40
2017-11-12T05:02:03.770Z,92.13
2017-11-12T05:03:10.369Z,92.34
2017-11-12T05:04:16.444Z,92.36
2017-11-12T05:05:21.876Z,92.22
2017-11-12T05:06:27.954Z,92.32
2017-11-12T05:07:34.137Z,92.63
2017-11-12T05:08:40.189Z,92.36
2017-11-12T05:09:46.329Z,92.08
2017-11-12T05:10:52.462Z,91.85
2017-11-12T05:11:59.435Z,91.77
2017-11-12T05:13:05.493Z,91.75
2017-11-12T05:14:12.502Z,91.85
2017-11-12T05:15:18.596Z,91.92
2017-11-12T05:16:25.608Z,91.74
2017-11-12T05:17:31.709Z,92.14
2017-11-12T05:18:37.787Z,91.85
2017-11-12T05:19:43.853Z,91.98
2017-11-12T05:20:49.994Z,92.33
2017-11-12T05:21:56.096Z,92.07
2017-11-12T05:23:02.169Z,92.06
2017-11-12T05:24:09.175Z,91.98
2017-11-12T05:25:15.259Z,91.76
2017-11-12T05:26:21.373Z,91.84
2017-11-12T05:27:27.455Z,91.78
2017-11-12T05:28:33.513Z,92.30
2017-11-12T05:30:52.263Z,92.46
2017-11-12T05:31:58.311Z,92.52
2017-11-12T05:33:13.248Z,92.47
2017-11-12T05:34:19.354Z,92.75
2017-11-12T05:35:25.469Z,93.21
2017-11-12T05:36:31.526Z,93.38
2017-11-12T05:37:37.575Z,93.73
2017-11-12T05:38:43.620Z,93.93
2017-11-12T05:39:49.683Z,94.15
2017-11-12T05:40:55.799Z,94.28
2017-11-12T05:42:01.879Z,94.51
2017-11-12T05:43:07.934Z,94.78
2017-11-12T05:44:14.014Z,95.19
2017-11-12T05:45:20.090Z,95.30
2017-11-12T05:46:26.196Z,95.68
2017-11-12T05:47:32.795Z,95.92
2017-11-12T05:48:39.722Z,96.35
2017-11-12T05:49:45.819Z,96.46
2017-11-12T05:50:51.895Z,96.56
2017-11-12T05:51:57.951Z,96.45
2017-11-12T05:53:04.007Z,96.44
2017-11-12T05:54:10.106Z,96.47
2017-11-12T05:55:16.184Z,96.37
2017-11-12T05:56:22.271Z,96.24
2017-11-12T05:57:28.359Z,96.06
2017-11-12T05:58:34.314Z,96.02
2017-11-12T05:59:40.413Z,96.03
2017-11-12T06:00:46.515Z,96.13
2017-11-12T06:01:52.571Z,96.23
2017-11-12T06:02:59.496Z,95.92
2017-11-12T06:04:05.375Z,95.83
2017-11-12T06:05:11.459Z,95.78
2017-11-12T06:06:17.358Z,95.89
2017-11-12T06:07:28.174Z,95.81
2017-11-12T06:08:34.299Z,95.79
2017-11-12T06:09:41.206Z,95.78
2017-11-12T06:10:47.303Z,95.90
2017-11-12T06:11:53.420Z,95.68
2017-11-12T06:12:59.506Z,95.69
2017-11-12T06:14:05.406Z,95.59
2017-11-12T06:15:10.578Z,95.41
2017-11-12T06:16:16.623Z,95.34
2017-11-12T06:17:22.367Z,95.16
2017-11-12T06:18:27.882Z,94.94
2017-11-12T06:19:33.792Z,94.95
2017-11-12T06:20:39.684Z,95.40
2017-11-12T06:21:47.061Z,95.66
2017-11-12T06:22:55.771Z,95.76
2017-11-12T06:24:02.110Z,95.79
2017-11-12T06:25:08.210Z,95.77
2017-11-12T06:26:14.118Z,96.01
2017-11-12T06:27:20.099Z,95.95
2017-11-12T06:28:26.005Z,96.03
2017-11-12T06:29:31.868Z,96.21
2017-11-12T06:30:37.961Z,96.59
2017-11-12T06:31:44.065Z,96.45
2017-11-12T06:32:49.276Z,96.22
2017-11-12T06:33:55.353Z,96.24
2017-11-12T06:35:01.407Z,96.38
2017-11-12T06:36:07.493Z,96.42
2017-11-12T06:37:13.625Z,96.23
2017-11-12T06:38:19.695Z,96.35
2017-11-12T06:39:25.863Z,96.42
2017-11-12T06:40:31.978Z,96.23
2017-11-12T06:41:38.110Z,95.92
2017-11-12T06:42:44.235Z,95.88
2017-11-12T06:43:50.322Z,95.46
2017-11-12T06:44:56.409Z,95.02
2017-11-12T06:46:13.688Z,94.99
2017-11-12T06:47:19.784Z,94.99
2017-11-12T06:48:25.908Z,95.03
2017-11-12T06:49:31.988Z,95.13
2017-11-12T06:50:38.103Z,95.39
2017-11-12T06:51:44.932Z,95.60
2017-11-12T06:52:52.140Z,95.24
2017-11-12T06:53:58.957Z,95.05
2017-11-12T06:55:05.822Z,95.13
2017-11-12T06:56:14.004Z,94.84
2017-11-12T06:57:21.820Z,94.63
2017-11-12T06:58:28.141Z,94.35
2017-11-12T06:59:34.255Z,94.14
2017-11-12T07:00:41.022Z,93.91
2017-11-12T07:01:49.038Z,94.16
2017-11-12T07:02:56.430Z,94.28
2017-11-12T07:04:03.315Z,94.60
2017-11-12T07:05:09.431Z,94.81
2017-11-12T07:06:15.493Z,94.51
2017-11-12T07:07:21.627Z,94.26
2017-11-12T07:08:27.694Z,94.25
2017-11-12T07:09:33.755Z,94.62
2017-11-12T07:10:39.887Z,94.70
2017-11-12T07:11:46.010Z,94.63
2017-11-12T07:12:51.758Z,94.43
2017-11-12T07:13:57.831Z,94.30
2017-11-12T07:15:03.563Z,94.21
2017-11-12T07:16:11.866Z,94.15
2017-11-12T07:17:17.835Z,93.99
2017-11-12T07:18:24.326Z,93.96
2017-11-12T07:19:30.589Z,93.95
2017-11-12T07:20:37.446Z,93.87
2017-11-12T07:21:45.080Z,93.68
2017-11-12T07:22:50.574Z,93.86
2017-11-12T07:23:56.669Z,93.69
2017-11-12T07:25:03.327Z,93.62
2017-11-12T07:26:09.418Z,93.70
2017-11-12T07:27:15.555Z,93.59
2017-11-12T07:28:21.818Z,93.49
2017-11-12T07:29:29.962Z,93.36
2017-11-12T07:30:36.080Z,93.39
2017-11-12T07:31:42.650Z,93.38
2017-11-12T07:32:49.031Z,93.91
2017-11-12T07:33:55.168Z,94.06
2017-11-12T07:35:03.621Z,94.35
2017-11-12T07:36:10.099Z,94.16
2017-11-12T07:37:18.330Z,93.83
2017-11-12T07:38:24.580Z,93.57
2017-11-12T07:39:30.822Z,94.05
2017-11-12T07:40:37.473Z,93.78
2017-11-12T07:41:43.675Z,93.60
2017-11-12T07:42:49.603Z,93.48
2017-11-12T07:43:56.020Z,93.58
2017-11-12T07:45:02.282Z,93.31
2017-11-12T07:46:08.540Z,93.10
2017-11-12T07:47:14.722Z,93.21
2017-11-12T07:48:21.031Z,93.22
2017-11-12T07:49:27.244Z,93.07
2017-11-12T07:50:33.459Z,92.98
2017-11-12T07:51:39.945Z,92.68
2017-11-12T07:52:46.283Z,92.52
2017-11-12T07:53:52.579Z,92.62
2017-11-12T07:55:00.515Z,92.77
2017-11-12T07:56:06.588Z,92.90
2017-11-12T07:57:12.675Z,92.75
2017-11-12T07:58:18.876Z,92.73
2017-11-12T07:59:25.936Z,92.89
2017-11-12T08:00:32.662Z,92.87
2017-11-12T08:01:38.796Z,92.90
2017-11-12T08:02:44.802Z,92.99
2017-11-12T08:03:50.951Z,93.17
2017-11-12T08:04:57.856Z,93.47
2017-11-12T08:06:04.758Z,93.35
2017-11-12T08:07:10.903Z,93.47
2017-11-12T08:08:28.105Z,93.51
2017-11-12T08:09:34.602Z,93.54
2017-11-12T08:10:40.808Z,93.96
2017-11-12T08:11:47.163Z,93.89
2017-11-12T08:12:53.116Z,93.87
2017-11-12T08:13:59.364Z,93.81
2017-11-12T08:15:10.680Z,93.93
2017-11-12T08:16:17.023Z,94.11
2017-11-12T08:17:23.126Z,93.96
2017-11-12T08:18:29.310Z,93.82
2017-11-12T08:19:35.464Z,93.65
2017-11-12T08:20:41.675Z,93.73
2017-11-12T08:21:47.936Z,93.78
2017-11-12T08:22:54.107Z,93.70
2017-11-12T08:24:00.649Z,93.83
2017-11-12T08:25:06.751Z,93.95
2017-11-12T08:26:12.956Z,93.86
2017-11-12T08:27:19.151Z,93.62
2017-11-12T08:28:24.886Z,93.72
2017-11-12T08:29:31.227Z,93.81
2017-11-12T08:30:36.741Z,93.74
2017-11-12T08:31:43.226Z,93.71
2017-11-12T08:32:49.483Z,94.09
2017-11-12T08:33:56.004Z,93.73
2017-11-12T08:35:01.764Z,93.95
2017-11-12T08:36:11.710Z,93.47
2017-11-12T08:37:18.056Z,93.29
2017-11-12T08:38:24.226Z,93.34
2017-11-12T08:39:29.783Z,93.50
2017-11-12T08:40:35.534Z,93.37
2017-11-12T08:41:41.400Z,93.32
2017-11-12T08:42:47.453Z,93.06
2017-11-12T08:43:53.167Z,93.12
2017-11-12T08:44:59.206Z,92.95
2017-11-12T08:46:04.338Z,92.62
2017-11-12T08:47:09.992Z,92.52
2017-11-12T08:48:15.855Z,92.30
2017-11-12T08:49:22.019Z,91.98
2017-11-12T08:50:28.416Z,91.78
2017-11-12T08:51:33.664Z,91.79
2017-11-12T08:52:39.390Z,92.20
2017-11-12T08:53:45.299Z,92.38
2017-11-12T08:54:51.050Z,92.21
2017-11-12T08:55:57.789Z,92.14
2017-11-12T08:57:04.316Z,91.76
2017-11-12T08:58:10.349Z,91.34
2017-11-12T08:59:16.107Z,91.40
2017-11-12T09:00:24.708Z,91.40
2017-11-12T09:01:29.841Z,91.50
2017-11-12T09:02:36.543Z,91.29
2017-11-12T09:03:42.310Z,91.00
2017-11-12T09:04:48.053Z,91.08
2017-11-12T09:05:53.730Z,90.95
2017-11-12T09:06:59.750Z,90.97
2017-11-12T09:08:05.794Z,91.21
2017-11-12T09:09:11.877Z,91.16
2017-11-12T09:10:18.032Z,90.73
2017-11-12T09:11:24.120Z,90.63
2017-11-12T09:12:30.274Z,91.04
2017-11-12T09:13:36.344Z,90.89
2017-11-12T09:14:42.092Z,90.63
2017-11-12T09:15:47.808Z,90.49
2017-11-12T09:17:01.271Z,90.35
2017-11-12T09:18:12.506Z,90.48
2017-11-12T09:19:18.569Z,90.65
2017-11-12T09:20:25.049Z,90.57
2017-11-12T09:21:31.161Z,90.39
2017-11-12T09:22:37.879Z,90.74
2017-11-12T09:23:44.322Z,90.53
2017-11-12T09:24:50.416Z,90.42
2017-11-12T09:25:56.467Z,90.47
2017-11-12T09:27:02.534Z,90.43
2017-11-12T09:28:08.197Z,89.94
2017-11-12T09:29:14.250Z,89.74
2017-11-12T09:30:20.319Z,89.45
2017-11-12T09:31:26.366Z,89.21
2017-11-12T09:32:32.064Z,89.42
2017-11-12T09:33:38.098Z,89.38
2017-11-12T09:34:44.278Z,89.26
2017-11-12T09:35:51.030Z,89.04
2017-11-12T09:36:57.085Z,89.02
2017-11-12T09:38:02.787Z,88.75
2017-11-12T09:39:08.859Z,88.80
2017-11-12T09:40:14.959Z,88.69
2017-11-12T09:41:21.063Z,88.58
2017-11-12T09:42:27.202Z,88.54
2017-11-12T09:43:36.232Z,88.36
2017-11-12T09:44:42.331Z,88.31
2017-11-12T09:45:48.400Z,88.33
2017-11-12T09:46:54.479Z,88.10
2017-11-12T09:48:00.533Z,87.92
2017-11-12T09:49:06.600Z,87.91
2017-11-12T09:50:12.693Z,87.96
2017-11-12T09:51:18.763Z,87.86
2017-11-12T09:52:24.836Z,87.70
2017-11-12T09:53:30.895Z,87.57
2017-11-12T09:54:36.999Z,87.53
2017-11-12T09:55:43.079Z,87.50
2017-11-12T09:56:49.200Z,87.53
2017-11-12T09:57:55.325Z,87.50
2017-11-12T09:59:01.422Z,87.17
2017-11-12T10:00:06.828Z,86.93
2017-11-12T10:01:12.759Z,86.79
2017-11-12T10:02:19.799Z,86.56
2017-11-12T10:03:25.928Z,86.47
2017-11-12T10:04:32.036Z,85.95
2017-11-12T10:05:38.232Z,86.69
2017-11-12T10:06:44.351Z,87.26
2017-11-12T10:07:51.323Z,87.23
2017-11-12T10:08:57.430Z,87.15
2017-11-12T10:10:03.547Z,86.95
2017-11-12T10:11:09.652Z,86.66
2017-11-12T10:12:15.795Z,86.66
2017-11-12T10:13:22.059Z,86.47
2017-11-12T10:14:28.175Z,86.54
2017-11-12T10:15:34.275Z,86.48
2017-11-12T10:16:43.183Z,86.55
2017-11-12T10:17:49.285Z,86.63
2017-11-12T10:18:55.416Z,86.60
2017-11-12T10:20:01.571Z,86.65
2017-11-12T10:21:07.674Z,86.48
2017-11-12T10:22:13.764Z,86.37
2017-11-12T10:23:19.689Z,86.42
2017-11-12T10:24:25.804Z,86.51
2017-11-12T10:25:32.004Z,86.49
2017-11-12T10:26:38.103Z,86.16
2017-11-12T10:27:44.226Z,86.11
2017-11-12T10:28:50.326Z,85.97
2017-11-12T10:29:56.425Z,85.84
2017-11-12T10:31:02.684Z,85.83
2017-11-12T10:32:08.782Z,85.70
2017-11-12T10:33:14.549Z,85.50
2017-11-12T10:34:20.663Z,85.48
2017-11-12T10:35:26.777Z,85.34
2017-11-12T10:36:32.896Z,85.18
2017-11-12T10:37:39.021Z,85.04
2017-11-12T10:38:45.117Z,85.30
2017-11-12T10:39:51.218Z,85.32
2017-11-12T10:40:57.330Z,85.38
2017-11-12T10:42:03.253Z,85.14
2017-11-12T10:43:09.374Z,85.34
2017-11-12T10:44:15.452Z,85.79
2017-11-12T10:45:21.524Z,85.82
2017-11-12T10:46:30.597Z,85.76
2017-11-12T10:47:38.510Z,85.54
2017-11-12T10:48:44.578Z,85.83
2017-11-12T10:49:51.510Z,85.92
2017-11-12T10:50:57.643Z,85.77
2017-11-12T10:52:03.783Z,85.83
2017-11-12T10:53:09.905Z,85.64
2017-11-12T10:54:15.690Z,85.82
2017-11-12T10:55:22.075Z,86.25
2017-11-12T10:56:29.894Z,85.94
2017-11-12T10:57:39.847Z,85.81
2017-11-12T10:58:46.085Z,86.03
2017-11-12T10:59:52.171Z,85.97
2017-11-12T11:00:58.334Z,86.16
2017-11-12T11:02:04.451Z,86.16
2017-11-12T11:03:10.584Z,86.05
2017-11-12T11:04:16.718Z,86.00
2017-11-12T11:05:22.815Z,86.14
2017-11-12T11:06:29.000Z,86.34
2017-11-12T11:07:35.133Z,86.08
2017-11-12T11:08:41.043Z,85.93
2017-11-12T11:09:47.155Z,85.68
2017-11-12T11:10:53.290Z,85.60
2017-11-12T11:11:59.459Z,85.51
2017-11-12T11:13:05.591Z,85.36
2017-11-12T11:14:11.705Z,85.47
2017-11-12T11:15:17.839Z,85.28
2017-11-12T11:16:23.991Z,85.37
2017-11-12T11:17:33.775Z,85.31
2017-11-12T11:18:39.888Z,85.23
2017-11-12T11:19:46.047Z,85.37
2017-11-12T11:20:53.111Z,85.23
2017-11-12T11:21:59.225Z,85.03
2017-11-12T11:23:05.025Z,85.12
2017-11-12T11:24:11.113Z,85.13
2017-11-12T11:25:17.233Z,85.22
2017-11-12T11:26:23.380Z,85.23
2017-11-12T11:27:29.589Z,85.07
2017-11-12T11:28:36.639Z,85.51
2017-11-12T11:29:43.060Z,85.53
2017-11-12T11:30:49.189Z,85.35
2017-11-12T11:31:55.321Z,85.35
2017-11-12T11:33:01.473Z,84.92
2017-11-12T11:34:07.837Z,85.02
2017-11-12T11:35:13.949Z,85.25
2017-11-12T11:36:20.101Z,85.37
2017-11-12T11:37:26.241Z,85.48
2017-11-12T11:38:32.351Z,85.75
2017-11-12T11:39:38.487Z,85.91
2017-11-12T11:40:44.666Z,86.22
2017-11-12T11:41:50.792Z,86.27
2017-11-12T11:42:56.573Z,86.08
2017-11-12T11:44:02.754Z,86.11
2017-11-12T11:45:13.769Z,85.90
2017-11-12T11:46:19.915Z,86.06
2017-11-12T11:47:26.066Z,86.12
2017-11-12T11:48:32.198Z,85.87
2017-11-12T11:49:38.326Z,85.59
2017-11-12T11:50:44.464Z,85.52
2017-11-12T11:51:50.575Z,85.60
2017-11-12T11:52:56.699Z,85.57
2017-11-12T11:54:03.312Z,85.28
2017-11-12T11:55:09.045Z,85.20
2017-11-12T11:56:14.825Z,85.11
2017-11-12T11:57:20.990Z,85.27
2017-11-12T11:58:27.115Z,84.88
2017-11-12T11:59:33.386Z,85.45
2017-11-12T12:00:38.787Z,85.60
2017-11-12T12:01:44.763Z,86.16
2017-11-12T12:02:50.905Z,86.41
2017-11-12T12:03:56.665Z,86.52
2017-11-12T12:05:02.782Z,86.28
2017-11-12T12:06:08.918Z,86.62
2017-11-12T12:07:15.287Z,86.54
2017-11-12T12:08:21.438Z,86.11
2017-11-12T12:09:28.311Z,86.20
2017-11-12T12:10:35.342Z,86.31
2017-11-12T12:11:41.517Z,86.58
2017-11-12T12:12:47.643Z,86.59
2017-11-12T12:13:53.779Z,86.29
2017-11-12T12:14:59.874Z,86.39
2017-11-12T12:16:06.006Z,86.12
2017-11-12T12:17:12.171Z,85.76
2017-11-12T12:18:18.326Z,85.71
2017-11-12T12:19:24.747Z,85.45
2017-11-12T12:20:30.883Z,86.13
2017-11-12T12:21:37.053Z,86.25
2017-11-12T12:22:43.176Z,85.53
2017-11-12T12:23:49.324Z,85.12
2017-11-12T12:24:55.473Z,85.11
2017-11-12T12:26:01.643Z,83.93
2017-11-12T12:27:07.759Z,84.02
2017-11-12T12:28:14.536Z,83.26
2017-11-12T12:29:21.288Z,82.77
2017-11-12T12:30:27.426Z,82.89
2017-11-12T12:31:33.591Z,82.17
2017-11-12T12:32:39.720Z,82.16
2017-11-12T12:33:45.871Z,81.81
2017-11-12T12:34:51.800Z,81.03
2017-11-12T12:35:57.930Z,81.23
2017-11-12T12:37:04.076Z,81.35
2017-11-12T12:38:11.292Z,81.16
2017-11-12T12:39:17.243Z,81.22
2017-11-12T12:40:23.357Z,80.84
2017-11-12T12:41:29.500Z,81.16
2017-11-12T12:42:35.611Z,81.26
2017-11-12T12:43:41.762Z,81.07
2017-11-12T12:44:48.176Z,81.21
2017-11-12T12:45:54.158Z,81.52
2017-11-12T12:47:00.277Z,81.26
2017-11-12T12:48:06.401Z,81.21
2017-11-12T12:49:12.337Z,81.13
2017-11-12T12:50:18.440Z,81.17
2017-11-12T12:51:24.564Z,81.14
2017-11-12T12:52:30.798Z,80.89
2017-11-12T12:53:36.934Z,80.79
2017-11-12T12:54:43.045Z,81.05
2017-11-12T12:55:49.185Z,81.05
2017-11-12T12:56:55.326Z,81.23
2017-11-12T12:58:01.409Z,81.55
2017-11-12T12:59:07.515Z,82.19
2017-11-12T13:00:13.692Z,82.28
2017-11-12T13:01:19.861Z,82.63
2017-11-12T13:02:26.009Z,82.80
2017-11-12T13:03:31.763Z,82.79
2017-11-12T13:04:37.872Z,82.41
2017-11-12T13:05:43.630Z,82.20
2017-11-12T13:06:49.777Z,82.06
2017-11-12T13:07:55.518Z,81.88
2017-11-12T13:09:01.665Z,81.70
2017-11-12T13:10:08.529Z,82.21
2017-11-12T13:11:15.578Z,82.16
2017-11-12T13:12:21.742Z,82.13
2017-11-12T13:13:27.864Z,81.17
2017-11-12T13:14:33.810Z,81.31
2017-11-12T13:15:39.948Z,81.52
2017-11-12T13:16:45.961Z,81.18
2017-11-12T13:17:52.077Z,81.70
2017-11-12T13:18:57.642Z,82.05
2017-11-12T13:20:03.391Z,81.96
2017-11-12T13:21:09.526Z,81.74
2017-11-12T13:22:16.496Z,81.69
2017-11-12T13:23:22.631Z,81.94
2017-11-12T13:24:28.387Z,82.16
2017-11-12T13:25:34.478Z,82.15
2017-11-12T13:26:40.113Z,82.24
2017-11-12T13:27:46.252Z,82.32
2017-11-12T13:28:52.293Z,81.87
2017-11-12T13:29:59.093Z,82.12
2017-11-12T13:31:05.225Z,82.15
2017-11-12T13:32:10.879Z,81.86
2017-11-12T13:33:17.539Z,82.01
2017-11-12T13:34:23.756Z,82.24
2017-11-12T13:35:29.301Z,82.40
2017-11-12T13:36:35.210Z,82.64
2017-11-12T13:37:41.333Z,82.70
2017-11-12T13:38:47.126Z,82.71
2017-11-12T13:39:53.199Z,82.39
2017-11-12T13:41:00.556Z,82.51
2017-11-12T13:42:06.330Z,82.29
2017-11-12T13:43:12.421Z,82.42
2017-11-12T13:44:18.550Z,82.04
2017-11-12T13:45:24.094Z,82.02
2017-11-12T13:46:30.256Z,82.13
2017-11-12T13:47:36.432Z,82.31
2017-11-12T13:48:42.574Z,82.14
2017-11-12T13:49:48.714Z,81.91
2017-11-12T13:50:54.847Z,81.98
2017-11-12T13:52:00.956Z,81.98
2017-11-12T13:53:07.116Z,82.29
2017-11-12T13:54:13.044Z,82.56
2017-11-12T13:55:19.174Z,82.46
2017-11-12T13:56:25.340Z,82.25
2017-11-12T13:57:35.457Z,82.31
2017-11-12T13:58:41.594Z,82.23
2017-11-12T13:59:47.721Z,81.94
2017-11-12T14:00:54.768Z,82.23
2017-11-12T14:02:00.927Z,82.10
2017-11-12T14:03:07.185Z,82.06
2017-11-12T14:04:13.318Z,82.09
2017-11-12T14:05:19.571Z,82.13
2017-11-12T14:06:25.715Z,82.15
2017-11-12T14:07:31.518Z,82.02
2017-11-12T14:08:37.672Z,82.35
2017-11-12T14:09:43.825Z,82.01
2017-11-12T14:10:51.075Z,82.28
2017-11-12T14:11:57.202Z,82.32
2017-11-12T14:13:03.225Z,82.38
2017-11-12T14:14:09.362Z,82.39
2017-11-12T14:15:15.500Z,82.34
2017-11-12T14:16:21.701Z,82.18